sensor_id;sensor_type;location;lat;lon;timestamp;pressure;altitude;pressure_sealevel;temperature;humidity
40460;BME280;26164;51.138;16.952;2023-11-19T00:00:12;75719.03;;;-146.39;32.68
40460;BME280;26164;51.138;16.952;2023-11-19T00:02:58;75614.94;;;-146.39;31.91
40460;BME280;26164;51.138;16.952;2023-11-19T00:05:34;75690.44;;;-146.39;32.61
40460;BME280;26164;51.138;16.952;2023-11-19T00:08:00;75882.31;;;-146.39;34.03
40460;BME280;26164;51.138;16.952;2023-11-19T00:10:26;75849.66;;;-146.39;33.68
40460;BME280;26164;51.138;16.952;2023-11-19T00:12:52;76045.59;;;-146.39;36.48
40460;BME280;26164;51.138;16.952;2023-11-19T00:15:18;76066.03;;;-146.39;36.63
40460;BME280;26164;51.138;16.952;2023-11-19T00:17:45;75849.66;;;-146.39;34.94
40460;BME280;26164;51.138;16.952;2023-11-19T00:20:12;76057.84;;;-146.39;36.56
40460;BME280;26164;51.138;16.952;2023-11-19T00:22:39;75841.50;;;-146.39;34.29
40460;BME280;26164;51.138;16.952;2023-11-19T00:25:06;75972.13;;;-146.39;35.05
40460;BME280;26164;51.138;16.952;2023-11-19T00:27:32;76066.03;;;-146.39;35.93
40460;BME280;26164;51.138;16.952;2023-11-19T00:29:58;76082.34;;;-146.39;36.27
40460;BME280;26164;51.138;16.952;2023-11-19T00:32:23;76004.78;;;-146.39;35.79
40460;BME280;26164;51.138;16.952;2023-11-19T00:34:50;75900.69;;;-146.39;35.10
40460;BME280;26164;51.138;16.952;2023-11-19T00:37:16;75735.34;;;-146.39;33.58
40460;BME280;26164;51.138;16.952;2023-11-19T00:39:46;75755.75;;;-146.39;33.82
40460;BME280;26164;51.138;16.952;2023-11-19T00:42:12;75776.19;;;-146.39;33.88
40460;BME280;26164;51.138;16.952;2023-11-19T00:44:38;75649.63;;;-146.39;33.08
40460;BME280;26164;51.138;16.952;2023-11-19T00:47:04;75723.09;;;-146.39;33.45
40460;BME280;26164;51.138;16.952;2023-11-19T00:49:31;75970.09;;;-146.39;35.54
40460;BME280;26164;51.138;16.952;2023-11-19T00:51:59;75792.50;;;-146.39;34.26
40460;BME280;26164;51.138;16.952;2023-11-19T00:54:25;76127.25;;;-146.39;36.62
40460;BME280;26164;51.138;16.952;2023-11-19T00:56:52;75780.25;;;-146.39;34.11
40460;BME280;26164;51.138;16.952;2023-11-19T00:59:20;75914.97;;;-146.39;35.49
40460;BME280;26164;51.138;16.952;2023-11-19T01:01:46;75757.81;;;-146.39;34.15
40460;BME280;26164;51.138;16.952;2023-11-19T01:04:17;75849.66;;;-146.39;34.67
40460;BME280;26164;51.138;16.952;2023-11-19T01:06:43;75784.34;;;-146.39;34.00
40460;BME280;26164;51.138;16.952;2023-11-19T01:09:09;75739.44;;;-146.39;33.67
40460;BME280;26164;51.138;16.952;2023-11-19T01:11:35;75865.97;;;-146.39;34.86
40460;BME280;26164;51.138;16.952;2023-11-19T01:14:03;75919.06;;;-146.39;35.80
40460;BME280;26164;51.138;16.952;2023-11-19T01:16:28;75865.97;;;-146.39;35.01
40460;BME280;26164;51.138;16.952;2023-11-19T01:18:54;75833.31;;;-146.39;34.61
40460;BME280;26164;51.138;16.952;2023-11-19T01:21:21;75739.44;;;-146.39;33.89
40460;BME280;26164;51.138;16.952;2023-11-19T01:23:48;75849.66;;;-146.39;34.68
40460;BME280;26164;51.138;16.952;2023-11-19T01:26:14;75802.72;;;-146.39;34.52
40460;BME280;26164;51.138;16.952;2023-11-19T01:28:40;75890.47;;;-146.39;35.08
40460;BME280;26164;51.138;16.952;2023-11-19T01:31:15;75768.00;;;-146.39;34.38
40460;BME280;26164;51.138;16.952;2023-11-19T01:33:41;75874.16;;;-146.39;34.95
40460;BME280;26164;51.138;16.952;2023-11-19T01:36:07;75976.22;;;-146.39;35.66
40460;BME280;26164;51.138;16.952;2023-11-19T01:38:35;75735.34;;;-146.39;34.10
40460;BME280;26164;51.138;16.952;2023-11-19T01:41:02;75923.13;;;-146.39;35.24
40460;BME280;26164;51.138;16.952;2023-11-19T01:43:37;75792.50;;;-146.39;34.61
40460;BME280;26164;51.138;16.952;2023-11-19T01:46:07;75706.78;;;-146.39;33.76
40460;BME280;26164;51.138;16.952;2023-11-19T01:48:41;75865.97;;;-146.39;34.87
40460;BME280;26164;51.138;16.952;2023-11-19T01:51:08;75827.19;;;-146.39;34.55
40460;BME280;26164;51.138;16.952;2023-11-19T01:53:36;75653.72;;;-146.39;33.25
40460;BME280;26164;51.138;16.952;2023-11-19T01:56:05;75694.53;;;-146.39;33.56
40460;BME280;26164;51.138;16.952;2023-11-19T01:58:39;75776.19;;;-146.39;34.19
40460;BME280;26164;51.138;16.952;2023-11-19T02:01:06;75849.66;;;-146.39;34.63
40460;BME280;26164;51.138;16.952;2023-11-19T02:03:33;75910.88;;;-146.39;35.30
40460;BME280;26164;51.138;16.952;2023-11-19T02:06:00;75776.19;;;-146.39;33.79
40460;BME280;26164;51.138;16.952;2023-11-19T02:08:27;75629.22;;;-146.39;33.01
40460;BME280;26164;51.138;16.952;2023-11-19T02:10:53;75696.56;;;-146.39;33.46
40460;BME280;26164;51.138;16.952;2023-11-19T02:13:26;75657.78;;;-146.39;33.06
40460;BME280;26164;51.138;16.952;2023-11-19T02:15:53;75759.84;;;-146.39;33.81
40460;BME280;26164;51.138;16.952;2023-11-19T02:18:21;75633.31;;;-146.39;32.83
40460;BME280;26164;51.138;16.952;2023-11-19T02:20:49;75682.28;;;-146.39;33.75
40460;BME280;26164;51.138;16.952;2023-11-19T02:23:16;75927.22;;;-146.39;35.37
40460;BME280;26164;51.138;16.952;2023-11-19T02:25:47;75723.09;;;-146.39;33.87
40460;BME280;26164;51.138;16.952;2023-11-19T02:28:15;75706.78;;;-146.39;33.53
40460;BME280;26164;51.138;16.952;2023-11-19T02:30:42;75837.41;;;-146.39;34.31
40460;BME280;26164;51.138;16.952;2023-11-19T02:33:10;75616.97;;;-146.39;33.10
40460;BME280;26164;51.138;16.952;2023-11-19T02:35:36;75657.78;;;-146.39;32.83
40460;BME280;26164;51.138;16.952;2023-11-19T02:38:03;75817.00;;;-146.39;34.70
40460;BME280;26164;51.138;16.952;2023-11-19T02:40:30;75678.19;;;-146.39;33.26
40460;BME280;26164;51.138;16.952;2023-11-19T02:42:56;75710.88;;;-146.39;33.73
40460;BME280;26164;51.138;16.952;2023-11-19T02:45:24;75686.38;;;-146.39;33.41
40460;BME280;26164;51.138;16.952;2023-11-19T02:47:51;75761.88;;;-146.39;34.17
40460;BME280;26164;51.138;16.952;2023-11-19T02:50:20;75735.34;;;-146.39;33.77
40460;BME280;26164;51.138;16.952;2023-11-19T02:52:54;75800.66;;;-146.39;34.52
40460;BME280;26164;51.138;16.952;2023-11-19T02:55:22;75678.19;;;-146.39;33.59
40460;BME280;26164;51.138;16.952;2023-11-19T02:57:50;75747.59;;;-146.39;34.02
40460;BME280;26164;51.138;16.952;2023-11-19T03:00:21;75682.28;;;-146.39;33.82
40460;BME280;26164;51.138;16.952;2023-11-19T03:02:58;75721.06;;;-146.39;33.64
40460;BME280;26164;51.138;16.952;2023-11-19T03:05:26;75747.59;;;-146.39;34.29
40460;BME280;26164;51.138;16.952;2023-11-19T03:07:55;75665.97;;;-146.39;33.77
40460;BME280;26164;51.138;16.952;2023-11-19T03:10:21;75821.09;;;-146.39;34.61
40460;BME280;26164;51.138;16.952;2023-11-19T03:12:47;75747.59;;;-146.39;34.32
40460;BME280;26164;51.138;16.952;2023-11-19T03:15:13;75776.19;;;-146.39;34.48
40460;BME280;26164;51.138;16.952;2023-11-19T03:17:41;75651.66;;;-146.39;33.57
40460;BME280;26164;51.138;16.952;2023-11-19T03:20:09;75616.97;;;-146.39;33.66
40460;BME280;26164;51.138;16.952;2023-11-19T03:22:37;75590.44;;;-146.39;32.69
40460;BME280;26164;51.138;16.952;2023-11-19T03:25:03;75919.06;;;-146.39;35.60
40460;BME280;26164;51.138;16.952;2023-11-19T03:27:30;75751.69;;;-146.39;34.22
40460;BME280;26164;51.138;16.952;2023-11-19T03:29:56;75759.84;;;-146.39;34.17
40460;BME280;26164;51.138;16.952;2023-11-19T03:32:22;75878.22;;;-146.39;35.03
40460;BME280;26164;51.138;16.952;2023-11-19T03:34:48;75700.66;;;-146.39;34.00
40460;BME280;26164;51.138;16.952;2023-11-19T03:37:14;75808.84;;;-146.39;34.43
40460;BME280;26164;51.138;16.952;2023-11-19T03:39:43;75653.72;;;-146.39;33.47
40460;BME280;26164;51.138;16.952;2023-11-19T03:42:11;75751.69;;;-146.39;34.39
40460;BME280;26164;51.138;16.952;2023-11-19T03:44:38;75608.81;;;-146.39;33.52
40460;BME280;26164;51.138;16.952;2023-11-19T03:47:05;75653.72;;;-146.39;33.53
40460;BME280;26164;51.138;16.952;2023-11-19T03:49:32;75645.56;;;-146.39;33.50
40460;BME280;26164;51.138;16.952;2023-11-19T03:51:59;75682.28;;;-146.39;33.70
40460;BME280;26164;51.138;16.952;2023-11-19T03:54:25;75776.19;;;-146.39;34.14
40460;BME280;26164;51.138;16.952;2023-11-19T03:56:53;75661.88;;;-146.39;33.66
40460;BME280;26164;51.138;16.952;2023-11-19T03:59:20;75708.81;;;-146.39;34.08
40460;BME280;26164;51.138;16.952;2023-11-19T04:01:46;75743.53;;;-146.39;34.49
40460;BME280;26164;51.138;16.952;2023-11-19T04:04:13;75747.59;;;-146.39;34.51
40460;BME280;26164;51.138;16.952;2023-11-19T04:06:40;75737.41;;;-146.39;34.08
40460;BME280;26164;51.138;16.952;2023-11-19T04:09:06;75837.41;;;-146.39;35.55
40460;BME280;26164;51.138;16.952;2023-11-19T04:11:35;75743.53;;;-146.39;34.95
40460;BME280;26164;51.138;16.952;2023-11-19T04:14:01;75831.28;;;-146.39;35.49
40460;BME280;26164;51.138;16.952;2023-11-19T04:16:27;75861.91;;;-146.39;35.98
40460;BME280;26164;51.138;16.952;2023-11-19T04:18:54;75727.19;;;-146.39;34.49
40460;BME280;26164;51.138;16.952;2023-11-19T04:21:20;75825.16;;;-146.39;35.40
40460;BME280;26164;51.138;16.952;2023-11-19T04:23:48;75772.09;;;-146.39;35.42
40460;BME280;26164;51.138;16.952;2023-11-19T04:26:15;75682.28;;;-146.39;34.29
40460;BME280;26164;51.138;16.952;2023-11-19T04:28:41;75531.25;;;-146.39;33.48
40460;BME280;26164;51.138;16.952;2023-11-19T04:31:07;75731.28;;;-146.39;34.85
40460;BME280;26164;51.138;16.952;2023-11-19T04:33:34;75680.25;;;-146.39;34.67
40460;BME280;26164;51.138;16.952;2023-11-19T04:36:37;75612.88;;;-146.39;34.20
40460;BME280;26164;51.138;16.952;2023-11-19T04:39:04;75706.78;;;-146.39;34.92
40460;BME280;26164;51.138;16.952;2023-11-19T04:41:51;75741.47;;;-146.39;35.18
40460;BME280;26164;51.138;16.952;2023-11-19T04:44:18;75682.28;;;-146.39;34.35
40460;BME280;26164;51.138;16.952;2023-11-19T04:46:45;75639.44;;;-146.39;34.22
40460;BME280;26164;51.138;16.952;2023-11-19T04:49:14;75680.25;;;-146.39;34.23
40460;BME280;26164;51.138;16.952;2023-11-19T04:51:41;75602.69;;;-146.39;34.26
40460;BME280;26164;51.138;16.952;2023-11-19T04:54:10;75545.53;;;-146.39;33.58
40460;BME280;26164;51.138;16.952;2023-11-19T04:56:36;75596.56;;;-146.39;33.88
40460;BME280;26164;51.138;16.952;2023-11-19T04:59:03;75492.47;;;-146.39;33.35
40460;BME280;26164;51.138;16.952;2023-11-19T05:01:32;75698.63;;;-146.39;34.91
40460;BME280;26164;51.138;16.952;2023-11-19T05:03:57;75588.41;;;-146.39;33.82
40460;BME280;26164;51.138;16.952;2023-11-19T05:06:29;75559.81;;;-146.39;33.82
40460;BME280;26164;51.138;16.952;2023-11-19T05:08:59;75488.41;;;-146.39;33.31
40460;BME280;26164;51.138;16.952;2023-11-19T05:11:33;75616.97;;;-146.39;34.65
40460;BME280;26164;51.138;16.952;2023-11-19T05:14:00;75649.63;;;-146.39;34.70
40460;BME280;26164;51.138;16.952;2023-11-19T05:16:26;75698.63;;;-146.39;34.76
40460;BME280;26164;51.138;16.952;2023-11-19T05:18:52;75539.41;;;-146.39;33.39
40460;BME280;26164;51.138;16.952;2023-11-19T05:21:18;75519.00;;;-146.39;33.35
40460;BME280;26164;51.138;16.952;2023-11-19T05:23:44;75457.78;;;-146.39;32.90
40460;BME280;26164;51.138;16.952;2023-11-19T05:26:18;75502.69;;;-146.39;33.29
40460;BME280;26164;51.138;16.952;2023-11-19T05:28:44;75470.03;;;-146.39;33.10
40460;BME280;26164;51.138;16.952;2023-11-19T05:31:10;75494.50;;;-146.39;33.02
40460;BME280;26164;51.138;16.952;2023-11-19T05:33:36;75414.91;;;-146.39;32.60
40460;BME280;26164;51.138;16.952;2023-11-19T05:36:03;75551.66;;;-146.39;33.24
40460;BME280;26164;51.138;16.952;2023-11-19T05:38:29;75633.31;;;-146.39;34.51
40460;BME280;26164;51.138;16.952;2023-11-19T05:40:59;75612.88;;;-146.39;34.08
40460;BME280;26164;51.138;16.952;2023-11-19T05:43:25;75547.59;;;-146.39;33.60
40460;BME280;26164;51.138;16.952;2023-11-19T05:45:51;75653.72;;;-146.39;34.78
40460;BME280;26164;51.138;16.952;2023-11-19T05:48:16;75490.44;;;-146.39;33.47
40460;BME280;26164;51.138;16.952;2023-11-19T05:50:43;75421.03;;;-146.39;32.65
40460;BME280;26164;51.138;16.952;2023-11-19T05:53:08;75412.88;;;-146.39;32.56
40460;BME280;26164;51.138;16.952;2023-11-19T05:55:39;75555.75;;;-146.39;33.79
40460;BME280;26164;51.138;16.952;2023-11-19T05:58:30;75523.09;;;-146.39;33.61
40460;BME280;26164;51.138;16.952;2023-11-19T06:00:58;75427.16;;;-146.39;33.14
40460;BME280;26164;51.138;16.952;2023-11-19T06:03:26;75412.88;;;-146.39;32.88
40460;BME280;26164;51.138;16.952;2023-11-19T06:05:52;75378.19;;;-146.39;32.53
40460;BME280;26164;51.138;16.952;2023-11-19T06:08:19;75465.94;;;-146.39;33.14
40460;BME280;26164;51.138;16.952;2023-11-19T06:10:46;75404.72;;;-146.39;32.80
40460;BME280;26164;51.138;16.952;2023-11-19T06:13:13;75372.06;;;-146.39;32.65
40460;BME280;26164;51.138;16.952;2023-11-19T06:15:44;75363.91;;;-146.39;32.89
40460;BME280;26164;51.138;16.952;2023-11-19T06:18:10;75514.94;;;-146.39;33.56
40460;BME280;26164;51.138;16.952;2023-11-19T06:20:38;75476.16;;;-146.39;33.63
40460;BME280;26164;51.138;16.952;2023-11-19T06:23:04;75384.31;;;-146.39;32.74
40460;BME280;26164;51.138;16.952;2023-11-19T06:25:30;75488.41;;;-146.39;33.58
40460;BME280;26164;51.138;16.952;2023-11-19T06:27:56;75339.41;;;-146.39;32.58
40460;BME280;26164;51.138;16.952;2023-11-19T06:30:23;75488.41;;;-146.39;33.72
40460;BME280;26164;51.138;16.952;2023-11-19T06:32:49;75416.97;;;-146.39;33.21
40460;BME280;26164;51.138;16.952;2023-11-19T06:35:15;75351.66;;;-146.39;32.79
40460;BME280;26164;51.138;16.952;2023-11-19T06:37:43;75396.56;;;-146.39;33.09
40460;BME280;26164;51.138;16.952;2023-11-19T06:40:10;75316.97;;;-146.39;32.89
40460;BME280;26164;51.138;16.952;2023-11-19T06:42:36;75206.75;;;-146.39;31.58
40460;BME280;26164;51.138;16.952;2023-11-19T06:45:02;75261.84;;;-146.39;32.21
40460;BME280;26164;51.138;16.952;2023-11-19T06:47:29;75437.38;;;-146.39;33.10
40460;BME280;26164;51.138;16.952;2023-11-19T06:49:55;75388.38;;;-146.39;33.32
40460;BME280;26164;51.138;16.952;2023-11-19T06:52:21;75386.34;;;-146.39;33.41
40460;BME280;26164;51.138;16.952;2023-11-19T06:54:47;75453.69;;;-146.39;34.02
40460;BME280;26164;51.138;16.952;2023-11-19T06:57:13;75263.91;;;-146.39;32.79
40460;BME280;26164;51.138;16.952;2023-11-19T06:59:40;75257.78;;;-146.39;32.54
40460;BME280;26164;51.138;16.952;2023-11-19T07:02:06;75296.53;;;-146.39;33.03
40460;BME280;26164;51.138;16.952;2023-11-19T07:04:32;75333.28;;;-146.39;33.26
40460;BME280;26164;51.138;16.952;2023-11-19T07:07:00;75327.16;;;-146.39;33.52
40460;BME280;26164;51.138;16.952;2023-11-19T07:09:26;75208.78;;;-146.39;32.31
40460;BME280;26164;51.138;16.952;2023-11-19T07:11:52;75382.25;;;-146.39;33.48
40460;BME280;26164;51.138;16.952;2023-11-19T07:14:19;75421.03;;;-146.39;34.11
40460;BME280;26164;51.138;16.952;2023-11-19T07:16:45;75214.91;;;-146.39;32.56
40460;BME280;26164;51.138;16.952;2023-11-19T07:19:12;75184.31;;;-146.39;32.55
40460;BME280;26164;51.138;16.952;2023-11-19T07:21:41;75110.84;;;-146.39;32.27
40460;BME280;26164;51.138;16.952;2023-11-19T07:24:11;75319.00;;;-146.39;33.64
40460;BME280;26164;51.138;16.952;2023-11-19T07:26:45;75261.84;;;-146.39;33.30
40460;BME280;26164;51.138;16.952;2023-11-19T07:29:11;75184.31;;;-146.39;32.63
40460;BME280;26164;51.138;16.952;2023-11-19T07:31:37;75221.03;;;-146.39;32.57
40460;BME280;26164;51.138;16.952;2023-11-19T07:34:03;75241.44;;;-146.39;32.89
40460;BME280;26164;51.138;16.952;2023-11-19T07:36:30;75200.63;;;-146.39;32.47
40460;BME280;26164;51.138;16.952;2023-11-19T07:38:58;75094.50;;;-146.39;31.83
40460;BME280;26164;51.138;16.952;2023-11-19T07:41:24;75265.94;;;-146.39;33.30
40460;BME280;26164;51.138;16.952;2023-11-19T07:43:51;75392.47;;;-146.39;34.45
40460;BME280;26164;51.138;16.952;2023-11-19T07:46:18;75286.34;;;-146.39;33.73
40460;BME280;26164;51.138;16.952;2023-11-19T07:48:47;75257.78;;;-146.39;33.47
40460;BME280;26164;51.138;16.952;2023-11-19T07:51:13;75123.06;;;-146.39;32.63
40460;BME280;26164;51.138;16.952;2023-11-19T07:53:40;75123.06;;;-146.39;32.68
40460;BME280;26164;51.138;16.952;2023-11-19T07:56:07;75065.94;;;-146.39;31.97
40460;BME280;26164;51.138;16.952;2023-11-19T07:58:33;75147.56;;;-146.39;32.49
40460;BME280;26164;51.138;16.952;2023-11-19T08:01:00;75157.78;;;-146.39;33.16
40460;BME280;26164;51.138;16.952;2023-11-19T08:03:28;75135.31;;;-146.39;32.73
40460;BME280;26164;51.138;16.952;2023-11-19T08:05:55;75106.75;;;-146.39;32.58
40460;BME280;26164;51.138;16.952;2023-11-19T08:08:24;75061.84;;;-146.39;32.16
40460;BME280;26164;51.138;16.952;2023-11-19T08:10:52;75137.38;;;-146.39;32.47
40460;BME280;26164;51.138;16.952;2023-11-19T08:13:19;75278.19;;;-146.39;33.74
40460;BME280;26164;51.138;16.952;2023-11-19T08:15:45;75029.22;;;-146.39;31.86
40460;BME280;26164;51.138;16.952;2023-11-19T08:18:12;74990.44;;;-146.39;31.74
40460;BME280;26164;51.138;16.952;2023-11-19T08:20:38;75025.13;;;-146.39;31.73
40460;BME280;26164;51.138;16.952;2023-11-19T08:23:05;75061.84;;;-146.39;32.21
40460;BME280;26164;51.138;16.952;2023-11-19T08:25:31;75165.94;;;-146.39;33.03
40460;BME280;26164;51.138;16.952;2023-11-19T08:27:59;75261.84;;;-146.39;34.36
40460;BME280;26164;51.138;16.952;2023-11-19T08:30:27;75176.13;;;-146.39;33.36
40460;BME280;26164;51.138;16.952;2023-11-19T08:32:53;75410.84;;;-146.39;35.65
40460;BME280;26164;51.138;16.952;2023-11-19T08:35:19;75367.97;;;-146.39;35.78
40460;BME280;26164;51.138;16.952;2023-11-19T08:37:45;75212.88;;;-146.39;34.29
40460;BME280;26164;51.138;16.952;2023-11-19T08:40:12;75278.19;;;-146.39;35.00
40460;BME280;26164;51.138;16.952;2023-11-19T08:42:40;75221.03;;;-146.39;34.63
40460;BME280;26164;51.138;16.952;2023-11-19T08:45:07;75298.59;;;-146.39;35.40
40460;BME280;26164;51.138;16.952;2023-11-19T08:47:36;75184.31;;;-146.39;34.40
40460;BME280;26164;51.138;16.952;2023-11-19T08:50:02;75347.56;;;-146.39;35.32
40460;BME280;26164;51.138;16.952;2023-11-19T08:52:30;75159.81;;;-146.39;34.54
40460;BME280;26164;51.138;16.952;2023-11-19T08:54:56;75188.38;;;-146.39;34.34
40460;BME280;26164;51.138;16.952;2023-11-19T08:57:23;75308.78;;;-146.39;35.36
40460;BME280;26164;51.138;16.952;2023-11-19T08:59:49;75200.63;;;-146.39;34.58
40460;BME280;26164;51.138;16.952;2023-11-19T09:02:15;75139.41;;;-146.39;34.34
40460;BME280;26164;51.138;16.952;2023-11-19T09:04:42;75221.03;;;-146.39;34.88
40460;BME280;26164;51.138;16.952;2023-11-19T09:07:08;75247.56;;;-146.39;34.96
40460;BME280;26164;51.138;16.952;2023-11-19T09:09:35;75257.78;;;-146.39;35.28
40460;BME280;26164;51.138;16.952;2023-11-19T09:12:04;75233.28;;;-146.39;35.19
40460;BME280;26164;51.138;16.952;2023-11-19T09:14:30;75192.47;;;-146.39;34.72
40460;BME280;26164;51.138;16.952;2023-11-19T09:16:56;75127.16;;;-146.39;34.42
40460;BME280;26164;51.138;16.952;2023-11-19T09:19:25;75037.38;;;-146.39;33.75
40460;BME280;26164;51.138;16.952;2023-11-19T09:21:53;75078.19;;;-146.39;33.86
40460;BME280;26164;51.138;16.952;2023-11-19T09:24:18;75031.25;;;-146.39;33.52
40460;BME280;26164;51.138;16.952;2023-11-19T09:26:44;75061.84;;;-146.39;33.88
40460;BME280;26164;51.138;16.952;2023-11-19T09:29:11;74857.78;;;-146.39;32.56
40460;BME280;26164;51.138;16.952;2023-11-19T09:31:41;75104.72;;;-146.39;34.01
40460;BME280;26164;51.138;16.952;2023-11-19T09:34:06;75184.31;;;-146.39;34.99
40460;BME280;26164;51.138;16.952;2023-11-19T09:36:36;75008.78;;;-146.39;33.59
40460;BME280;26164;51.138;16.952;2023-11-19T09:39:02;75000.63;;;-146.39;33.61
40460;BME280;26164;51.138;16.952;2023-11-19T09:41:31;75094.50;;;-146.39;34.60
40460;BME280;26164;51.138;16.952;2023-11-19T09:43:58;75027.16;;;-146.39;33.96
40460;BME280;26164;51.138;16.952;2023-11-19T09:46:36;75127.16;;;-146.39;35.05
40460;BME280;26164;51.138;16.952;2023-11-19T09:49:09;75008.78;;;-146.39;34.23
40460;BME280;26164;51.138;16.952;2023-11-19T09:51:37;75039.41;;;-146.39;34.64
40460;BME280;26164;51.138;16.952;2023-11-19T09:54:04;75000.63;;;-146.39;34.64
40460;BME280;26164;51.138;16.952;2023-11-19T09:56:33;75053.69;;;-146.39;35.22
40460;BME280;26164;51.138;16.952;2023-11-19T09:59:01;75014.91;;;-146.39;34.72
40460;BME280;26164;51.138;16.952;2023-11-19T10:01:31;74849.63;;;-146.39;33.23
40460;BME280;26164;51.138;16.952;2023-11-19T10:04:01;75039.41;;;-146.39;35.30
40460;BME280;26164;51.138;16.952;2023-11-19T10:06:28;74961.88;;;-146.39;34.70
40460;BME280;26164;51.138;16.952;2023-11-19T10:08:55;74898.59;;;-146.39;34.29
40460;BME280;26164;51.138;16.952;2023-11-19T10:11:21;74841.47;;;-146.39;33.73
40460;BME280;26164;51.138;16.952;2023-11-19T10:13:47;74759.84;;;-146.39;33.12
40460;BME280;26164;51.138;16.952;2023-11-19T10:16:15;74776.16;;;-146.39;33.26
40460;BME280;26164;51.138;16.952;2023-11-19T10:18:52;74784.31;;;-146.39;33.35
40460;BME280;26164;51.138;16.952;2023-11-19T10:21:35;74825.13;;;-146.39;33.75
40460;BME280;26164;51.138;16.952;2023-11-19T10:24:02;74845.53;;;-146.39;34.24
40460;BME280;26164;51.138;16.952;2023-11-19T10:26:28;74853.72;;;-146.39;34.46
40460;BME280;26164;51.138;16.952;2023-11-19T10:28:55;74906.75;;;-146.39;34.86
40460;BME280;26164;51.138;16.952;2023-11-19T10:31:22;74784.31;;;-146.39;34.17
40460;BME280;26164;51.138;16.952;2023-11-19T10:33:59;74617.00;;;-146.39;33.00
40460;BME280;26164;51.138;16.952;2023-11-19T10:36:38;74723.09;;;-146.39;33.53
40460;BME280;26164;51.138;16.952;2023-11-19T10:39:06;74772.09;;;-146.39;33.83
40460;BME280;26164;51.138;16.952;2023-11-19T10:41:34;74763.91;;;-146.39;33.65
40460;BME280;26164;51.138;16.952;2023-11-19T10:44:01;74694.53;;;-146.39;33.28
40460;BME280;26164;51.138;16.952;2023-11-19T10:46:41;74719.03;;;-146.39;33.46
40460;BME280;26164;51.138;16.952;2023-11-19T10:49:09;74857.78;;;-146.39;34.46
40460;BME280;26164;51.138;16.952;2023-11-19T10:51:43;74763.91;;;-146.39;34.47
40460;BME280;26164;51.138;16.952;2023-11-19T10:54:10;74586.41;;;-146.39;32.70
40460;BME280;26164;51.138;16.952;2023-11-19T10:56:37;74808.81;;;-146.39;34.31
40460;BME280;26164;51.138;16.952;2023-11-19T10:59:10;74731.28;;;-146.39;39.41
40460;BME280;26164;51.138;16.952;2023-11-19T11:01:43;74710.88;;;-146.39;33.96
40460;BME280;26164;51.138;16.952;2023-11-19T11:04:14;74727.19;;;-146.39;34.39
40460;BME280;26164;51.138;16.952;2023-11-19T11:06:41;74665.97;;;-146.39;33.75
40460;BME280;26164;51.138;16.952;2023-11-19T11:09:13;74549.66;;;-146.39;33.06
40460;BME280;26164;51.138;16.952;2023-11-19T11:11:41;74627.19;;;-146.39;33.52
40460;BME280;26164;51.138;16.952;2023-11-19T11:14:12;74688.41;;;-146.39;34.28
40460;BME280;26164;51.138;16.952;2023-11-19T11:16:42;74610.88;;;-146.39;33.79
40460;BME280;26164;51.138;16.952;2023-11-19T11:19:10;72915.59;;;-146.39;25.46
40460;BME280;26164;51.138;16.952;2023-11-19T11:21:37;73262.34;;;-146.39;24.88
40460;BME280;26164;51.138;16.952;2023-11-19T11:24:23;73066.50;;;-146.39;24.19
40460;BME280;26164;51.138;16.952;2023-11-19T11:27:13;73099.16;;;-146.39;24.17
40460;BME280;26164;51.138;16.952;2023-11-19T11:32:48;73088.94;;;-146.39;23.97
40460;BME280;26164;51.138;16.952;2023-11-19T11:38:08;73284.78;;;-146.39;24.74
40460;BME280;26164;51.138;16.952;2023-11-19T11:40:35;73392.88;;;-146.39;25.20
40460;BME280;26164;51.138;16.952;2023-11-19T11:43:02;73535.69;;;-146.39;25.94
40460;BME280;26164;51.138;16.952;2023-11-19T11:45:38;73360.25;;;-146.39;25.11
40460;BME280;26164;51.138;16.952;2023-11-19T11:48:09;73415.31;;;-146.39;25.41
40460;BME280;26164;51.138;16.952;2023-11-19T11:50:48;73460.19;;;-146.39;25.77
40460;BME280;26164;51.138;16.952;2023-11-19T11:53:18;73217.47;;;-146.39;24.75
40460;BME280;26164;51.138;16.952;2023-11-19T11:58:17;73392.88;;;-146.39;25.50
40460;BME280;26164;51.138;16.952;2023-11-19T12:00:48;73205.22;;;-146.39;24.56
40460;BME280;26164;51.138;16.952;2023-11-19T12:07:11;73396.97;;;-146.39;25.32
40460;BME280;26164;51.138;16.952;2023-11-19T12:09:42;73286.81;;;-146.39;25.00
40460;BME280;26164;51.138;16.952;2023-11-19T12:17:43;73233.78;;;-146.39;24.65
40460;BME280;26164;51.138;16.952;2023-11-19T12:20:16;72942.09;;;-146.39;23.77
40460;BME280;26164;51.138;16.952;2023-11-19T12:22:44;73197.06;;;-146.39;24.49
40460;BME280;26164;51.138;16.952;2023-11-19T12:25:13;73107.31;;;-146.39;24.23
40460;BME280;26164;51.138;16.952;2023-11-19T12:27:40;73107.31;;;-146.39;24.27
40460;BME280;26164;51.138;16.952;2023-11-19T12:30:07;73352.09;;;-146.39;25.33
40460;BME280;26164;51.138;16.952;2023-11-19T12:32:43;73219.50;;;-146.39;24.79
40460;BME280;26164;51.138;16.952;2023-11-19T12:36:54;73292.94;;;-146.39;25.15
40460;BME280;26164;51.138;16.952;2023-11-19T12:39:39;73503.03;;;-146.39;25.90
40460;BME280;26164;51.138;16.952;2023-11-19T12:42:06;73454.09;;;-146.39;26.21
40460;BME280;26164;51.138;16.952;2023-11-19T12:44:33;73486.72;;;-146.39;26.27
40460;BME280;26164;51.138;16.952;2023-11-19T12:53:02;73225.63;;;-146.39;24.77
40460;BME280;26164;51.138;16.952;2023-11-19T12:55:29;73091.00;;;-146.39;24.53
40460;BME280;26164;51.138;16.952;2023-11-19T12:58:00;73160.34;;;-146.39;24.86
40460;BME280;26164;51.138;16.952;2023-11-19T13:00:27;73219.50;;;-146.39;25.03